sensor_id;sensor_type;location;lat;lon;timestamp;P1;durP1;ratioP1;P2;durP2;ratioP2
12476;SDS011;6303;51.504;6.300;2022-12-07T00:01:10;1.73;;;1.10;;
12476;SDS011;6303;51.504;6.300;2022-12-07T00:03:39;1.27;;;1.17;;
12476;SDS011;6303;51.504;6.300;2022-12-07T00:06:07;1.65;;;1.42;;
12476;SDS011;6303;51.504;6.300;2022-12-07T00:08:36;1.27;;;1.20;;
12476;SDS011;6303;51.504;6.300;2022-12-07T00:11:04;1.48;;;1.30;;
12476;SDS011;6303;51.504;6.300;2022-12-07T00:13:32;1.23;;;1.17;;
12476;SDS011;6303;51.504;6.300;2022-12-07T00:16:02;1.80;;;1.42;;
12476;SDS011;6303;51.504;6.300;2022-12-07T00:18:31;1.13;;;1.10;;
12476;SDS011;6303;51.504;6.300;2022-12-07T00:21:01;1.40;;;1.30;;
12476;SDS011;6303;51.504;6.300;2022-12-07T00:23:29;1.27;;;1.17;;
12476;SDS011;6303;51.504;6.300;2022-12-07T00:26:02;1.30;;;1.15;;
12476;SDS011;6303;51.504;6.300;2022-12-07T00:28:30;1.38;;;1.27;;
12476;SDS011;6303;51.504;6.300;2022-12-07T00:31:04;1.25;;;1.15;;
12476;SDS011;6303;51.504;6.300;2022-12-07T00:33:32;1.20;;;1.10;;
12476;SDS011;6303;51.504;6.300;2022-12-07T00:36:00;1.30;;;1.20;;
12476;SDS011;6303;51.504;6.300;2022-12-07T00:38:28;1.35;;;1.25;;
12476;SDS011;6303;51.504;6.300;2022-12-07T00:40:56;1.30;;;1.20;;
12476;SDS011;6303;51.504;6.300;2022-12-07T00:43:24;1.23;;;1.00;;
12476;SDS011;6303;51.504;6.300;2022-12-07T00:45:51;1.33;;;1.23;;
12476;SDS011;6303;51.504;6.300;2022-12-07T00:48:20;1.10;;;1.10;;
12476;SDS011;6303;51.504;6.300;2022-12-07T00:50:48;1.33;;;1.23;;
12476;SDS011;6303;51.504;6.300;2022-12-07T00:53:15;1.77;;;1.30;;
12476;SDS011;6303;51.504;6.300;2022-12-07T00:55:43;1.45;;;1.35;;
12476;SDS011;6303;51.504;6.300;2022-12-07T00:58:10;1.00;;;1.00;;
12476;SDS011;6303;51.504;6.300;2022-12-07T01:00:38;1.33;;;1.25;;
12476;SDS011;6303;51.504;6.300;2022-12-07T01:03:07;0.98;;;0.95;;
12476;SDS011;6303;51.504;6.300;2022-12-07T01:05:37;1.10;;;1.10;;
12476;SDS011;6303;51.504;6.300;2022-12-07T01:08:05;1.00;;;1.00;;
12476;SDS011;6303;51.504;6.300;2022-12-07T01:10:32;1.13;;;1.08;;
12476;SDS011;6303;51.504;6.300;2022-12-07T01:13:00;1.20;;;1.10;;
12476;SDS011;6303;51.504;6.300;2022-12-07T01:15:27;1.20;;;1.10;;
12476;SDS011;6303;51.504;6.300;2022-12-07T01:17:54;1.80;;;1.20;;
12476;SDS011;6303;51.504;6.300;2022-12-07T01:20:21;1.50;;;1.38;;
12476;SDS011;6303;51.504;6.300;2022-12-07T01:22:50;1.30;;;1.15;;
12476;SDS011;6303;51.504;6.300;2022-12-07T01:25:17;1.25;;;1.15;;
12476;SDS011;6303;51.504;6.300;2022-12-07T01:27:44;1.45;;;1.25;;
12476;SDS011;6303;51.504;6.300;2022-12-07T01:30:11;1.25;;;1.15;;
12476;SDS011;6303;51.504;6.300;2022-12-07T01:32:39;1.77;;;1.30;;
12476;SDS011;6303;51.504;6.300;2022-12-07T01:35:07;1.40;;;1.30;;
12476;SDS011;6303;51.504;6.300;2022-12-07T01:37:35;1.10;;;1.10;;
12476;SDS011;6303;51.504;6.300;2022-12-07T01:40:04;1.25;;;1.25;;
12476;SDS011;6303;51.504;6.300;2022-12-07T01:42:32;1.10;;;1.10;;
12476;SDS011;6303;51.504;6.300;2022-12-07T01:48:04;1.20;;;1.20;;
12476;SDS011;6303;51.504;6.300;2022-12-07T01:50:33;1.30;;;1.20;;
12476;SDS011;6303;51.504;6.300;2022-12-07T01:53:01;1.80;;;1.23;;
12476;SDS011;6303;51.504;6.300;2022-12-07T01:55:33;1.13;;;1.13;;
12476;SDS011;6303;51.504;6.300;2022-12-07T01:58:03;1.10;;;1.10;;
12476;SDS011;6303;51.504;6.300;2022-12-07T02:00:31;1.20;;;1.20;;
12476;SDS011;6303;51.504;6.300;2022-12-07T02:02:59;1.33;;;1.05;;
12476;SDS011;6303;51.504;6.300;2022-12-07T02:05:31;1.00;;;1.00;;
12476;SDS011;6303;51.504;6.300;2022-12-07T02:07:59;1.30;;;1.20;;
12476;SDS011;6303;51.504;6.300;2022-12-07T02:10:28;1.30;;;1.20;;
12476;SDS011;6303;51.504;6.300;2022-12-07T02:12:58;1.15;;;1.15;;
12476;SDS011;6303;51.504;6.300;2022-12-07T02:15:30;1.50;;;1.23;;
12476;SDS011;6303;51.504;6.300;2022-12-07T02:18:07;1.40;;;1.30;;
12476;SDS011;6303;51.504;6.300;2022-12-07T02:20:41;2.17;;;1.25;;
12476;SDS011;6303;51.504;6.300;2022-12-07T02:23:33;1.10;;;1.10;;
12476;SDS011;6303;51.504;6.300;2022-12-07T02:26:16;1.42;;;1.10;;
12476;SDS011;6303;51.504;6.300;2022-12-07T02:29:00;1.23;;;1.23;;
12476;SDS011;6303;51.504;6.300;2022-12-07T02:31:41;1.30;;;1.20;;
12476;SDS011;6303;51.504;6.300;2022-12-07T02:34:12;1.40;;;1.30;;
12476;SDS011;6303;51.504;6.300;2022-12-07T02:36:46;1.33;;;1.20;;
12476;SDS011;6303;51.504;6.300;2022-12-07T02:39:19;1.10;;;1.10;;
12476;SDS011;6303;51.504;6.300;2022-12-07T02:41:55;1.48;;;1.38;;
12476;SDS011;6303;51.504;6.300;2022-12-07T02:44:28;1.80;;;1.15;;
12476;SDS011;6303;51.504;6.300;2022-12-07T02:46:57;1.20;;;1.10;;
12476;SDS011;6303;51.504;6.300;2022-12-07T02:49:28;1.45;;;1.35;;
12476;SDS011;6303;51.504;6.300;2022-12-07T02:51:56;1.50;;;1.40;;
12476;SDS011;6303;51.504;6.300;2022-12-07T02:54:23;1.10;;;1.10;;
12476;SDS011;6303;51.504;6.300;2022-12-07T02:56:51;1.30;;;1.20;;
12476;SDS011;6303;51.504;6.300;2022-12-07T02:59:25;1.40;;;1.30;;
12476;SDS011;6303;51.504;6.300;2022-12-07T03:02:05;1.33;;;1.23;;
12476;SDS011;6303;51.504;6.300;2022-12-07T03:04:43;1.40;;;1.30;;
12476;SDS011;6303;51.504;6.300;2022-12-07T03:07:21;1.40;;;1.30;;
12476;SDS011;6303;51.504;6.300;2022-12-07T03:09:58;1.10;;;1.10;;
12476;SDS011;6303;51.504;6.300;2022-12-07T03:12:29;1.20;;;1.10;;
12476;SDS011;6303;51.504;6.300;2022-12-07T03:15:04;1.30;;;1.20;;
12476;SDS011;6303;51.504;6.300;2022-12-07T03:17:35;1.20;;;1.20;;
12476;SDS011;6303;51.504;6.300;2022-12-07T03:20:09;1.23;;;1.13;;
12476;SDS011;6303;51.504;6.300;2022-12-07T03:22:38;1.42;;;1.33;;
12476;SDS011;6303;51.504;6.300;2022-12-07T03:25:08;1.30;;;1.20;;
12476;SDS011;6303;51.504;6.300;2022-12-07T03:27:41;1.20;;;1.20;;
12476;SDS011;6303;51.504;6.300;2022-12-07T03:30:14;1.20;;;1.20;;
12476;SDS011;6303;51.504;6.300;2022-12-07T03:32:44;1.40;;;1.30;;
12476;SDS011;6303;51.504;6.300;2022-12-07T03:35:16;1.25;;;1.10;;
12476;SDS011;6303;51.504;6.300;2022-12-07T03:37:49;1.15;;;1.15;;
12476;SDS011;6303;51.504;6.300;2022-12-07T03:40:22;2.28;;;1.30;;
12476;SDS011;6303;51.504;6.300;2022-12-07T03:42:53;1.48;;;1.40;;
12476;SDS011;6303;51.504;6.300;2022-12-07T03:45:28;1.52;;;1.42;;
12476;SDS011;6303;51.504;6.300;2022-12-07T03:48:05;1.48;;;1.30;;
12476;SDS011;6303;51.504;6.300;2022-12-07T03:50:38;1.42;;;1.33;;
12476;SDS011;6303;51.504;6.300;2022-12-07T03:53:11;1.35;;;1.25;;
12476;SDS011;6303;51.504;6.300;2022-12-07T03:55:42;1.27;;;1.25;;
12476;SDS011;6303;51.504;6.300;2022-12-07T03:58:14;1.35;;;1.25;;
12476;SDS011;6303;51.504;6.300;2022-12-07T04:00:45;1.33;;;1.23;;
12476;SDS011;6303;51.504;6.300;2022-12-07T04:03:13;1.13;;;1.10;;
12476;SDS011;6303;51.504;6.300;2022-12-07T04:05:40;1.30;;;1.20;;
12476;SDS011;6303;51.504;6.300;2022-12-07T04:08:07;1.38;;;1.27;;
12476;SDS011;6303;51.504;6.300;2022-12-07T04:10:35;1.42;;;1.30;;
12476;SDS011;6303;51.504;6.300;2022-12-07T04:13:02;1.30;;;1.20;;
12476;SDS011;6303;51.504;6.300;2022-12-07T04:15:29;1.55;;;1.30;;
12476;SDS011;6303;51.504;6.300;2022-12-07T04:17:57;1.50;;;1.40;;
12476;SDS011;6303;51.504;6.300;2022-12-07T04:20:24;0.98;;;0.98;;
12476;SDS011;6303;51.504;6.300;2022-12-07T04:22:51;1.55;;;1.40;;
12476;SDS011;6303;51.504;6.300;2022-12-07T04:25:18;1.40;;;1.30;;
12476;SDS011;6303;51.504;6.300;2022-12-07T04:27:45;1.50;;;1.23;;
12476;SDS011;6303;51.504;6.300;2022-12-07T04:30:12;1.40;;;1.30;;
12476;SDS011;6303;51.504;6.300;2022-12-07T04:32:40;2.00;;;1.00;;
12476;SDS011;6303;51.504;6.300;2022-12-07T04:35:08;1.20;;;1.10;;
12476;SDS011;6303;51.504;6.300;2022-12-07T04:37:35;1.52;;;1.38;;
12476;SDS011;6303;51.504;6.300;2022-12-07T04:40:05;2.03;;;1.25;;
12476;SDS011;6303;51.504;6.300;2022-12-07T04:42:33;2.05;;;1.27;;
12476;SDS011;6303;51.504;6.300;2022-12-07T04:45:00;1.45;;;1.35;;
12476;SDS011;6303;51.504;6.300;2022-12-07T04:47:27;1.27;;;1.27;;
12476;SDS011;6303;51.504;6.300;2022-12-07T04:49:55;1.33;;;1.30;;
12476;SDS011;6303;51.504;6.300;2022-12-07T04:52:23;1.20;;;1.20;;
12476;SDS011;6303;51.504;6.300;2022-12-07T04:54:50;1.50;;;1.40;;
12476;SDS011;6303;51.504;6.300;2022-12-07T04:57:17;1.52;;;1.27;;
12476;SDS011;6303;51.504;6.300;2022-12-07T04:59:44;1.10;;;1.10;;
12476;SDS011;6303;51.504;6.300;2022-12-07T05:02:11;1.40;;;1.35;;
12476;SDS011;6303;51.504;6.300;2022-12-07T05:04:38;1.30;;;1.20;;
12476;SDS011;6303;51.504;6.300;2022-12-07T05:07:06;1.35;;;1.25;;
12476;SDS011;6303;51.504;6.300;2022-12-07T05:09:34;1.25;;;1.25;;
12476;SDS011;6303;51.504;6.300;2022-12-07T05:12:01;1.40;;;1.30;;
12476;SDS011;6303;51.504;6.300;2022-12-07T05:14:28;1.40;;;1.30;;
12476;SDS011;6303;51.504;6.300;2022-12-07T05:16:55;1.55;;;1.20;;
12476;SDS011;6303;51.504;6.300;2022-12-07T05:19:22;1.42;;;1.33;;
12476;SDS011;6303;51.504;6.300;2022-12-07T05:21:49;1.30;;;1.20;;
12476;SDS011;6303;51.504;6.300;2022-12-07T05:24:16;1.20;;;1.10;;
12476;SDS011;6303;51.504;6.300;2022-12-07T05:26:45;1.20;;;1.17;;
12476;SDS011;6303;51.504;6.300;2022-12-07T05:29:13;1.50;;;1.40;;
12476;SDS011;6303;51.504;6.300;2022-12-07T05:31:41;1.98;;;1.23;;
12476;SDS011;6303;51.504;6.300;2022-12-07T05:34:08;1.20;;;1.10;;
12476;SDS011;6303;51.504;6.300;2022-12-07T05:36:36;2.22;;;1.20;;
12476;SDS011;6303;51.504;6.300;2022-12-07T05:39:03;1.33;;;1.05;;
12476;SDS011;6303;51.504;6.300;2022-12-07T05:41:30;1.10;;;1.10;;
12476;SDS011;6303;51.504;6.300;2022-12-07T05:44:16;1.25;;;1.15;;
12476;SDS011;6303;51.504;6.300;2022-12-07T05:46:43;1.15;;;1.10;;
12476;SDS011;6303;51.504;6.300;2022-12-07T05:49:10;1.33;;;1.20;;
12476;SDS011;6303;51.504;6.300;2022-12-07T05:51:37;1.58;;;1.02;;
12476;SDS011;6303;51.504;6.300;2022-12-07T05:54:04;1.70;;;1.27;;
12476;SDS011;6303;51.504;6.300;2022-12-07T05:56:31;1.23;;;1.20;;
12476;SDS011;6303;51.504;6.300;2022-12-07T05:58:58;1.00;;;1.00;;
12476;SDS011;6303;51.504;6.300;2022-12-07T06:01:44;1.65;;;1.20;;
12476;SDS011;6303;51.504;6.300;2022-12-07T06:04:11;1.30;;;1.20;;
12476;SDS011;6303;51.504;6.300;2022-12-07T06:06:38;1.13;;;1.02;;
12476;SDS011;6303;51.504;6.300;2022-12-07T06:09:06;1.13;;;1.00;;
12476;SDS011;6303;51.504;6.300;2022-12-07T06:11:33;0.98;;;0.98;;
12476;SDS011;6303;51.504;6.300;2022-12-07T06:14:17;1.90;;;0.90;;
12476;SDS011;6303;51.504;6.300;2022-12-07T06:16:46;1.10;;;0.93;;
12476;SDS011;6303;51.504;6.300;2022-12-07T06:19:13;1.25;;;0.90;;
12476;SDS011;6303;51.504;6.300;2022-12-07T06:21:40;0.98;;;0.90;;
12476;SDS011;6303;51.504;6.300;2022-12-07T06:24:08;1.52;;;1.00;;
12476;SDS011;6303;51.504;6.300;2022-12-07T06:26:37;1.10;;;1.10;;
12476;SDS011;6303;51.504;6.300;2022-12-07T06:29:04;3.08;;;1.23;;
12476;SDS011;6303;51.504;6.300;2022-12-07T06:31:31;2.10;;;1.25;;
12476;SDS011;6303;51.504;6.300;2022-12-07T06:34:00;1.77;;;1.30;;
12476;SDS011;6303;51.504;6.300;2022-12-07T06:36:28;1.20;;;1.10;;
12476;SDS011;6303;51.504;6.300;2022-12-07T06:38:55;1.92;;;1.23;;
12476;SDS011;6303;51.504;6.300;2022-12-07T06:41:23;4.95;;;1.70;;
12476;SDS011;6303;51.504;6.300;2022-12-07T06:43:50;5.22;;;2.20;;
12476;SDS011;6303;51.504;6.300;2022-12-07T06:46:17;6.95;;;1.92;;
12476;SDS011;6303;51.504;6.300;2022-12-07T06:48:45;7.25;;;2.35;;
12476;SDS011;6303;51.504;6.300;2022-12-07T06:51:13;9.27;;;2.78;;
12476;SDS011;6303;51.504;6.300;2022-12-07T06:53:40;6.57;;;2.47;;
12476;SDS011;6303;51.504;6.300;2022-12-07T06:56:07;12.07;;;3.40;;
12476;SDS011;6303;51.504;6.300;2022-12-07T06:58:34;9.07;;;2.92;;
12476;SDS011;6303;51.504;6.300;2022-12-07T07:01:01;9.52;;;2.75;;
12476;SDS011;6303;51.504;6.300;2022-12-07T07:03:28;7.90;;;2.80;;
12476;SDS011;6303;51.504;6.300;2022-12-07T07:05:55;7.25;;;2.70;;
12476;SDS011;6303;51.504;6.300;2022-12-07T07:08:24;9.73;;;2.88;;
12476;SDS011;6303;51.504;6.300;2022-12-07T07:10:51;7.57;;;2.67;;
12476;SDS011;6303;51.504;6.300;2022-12-07T07:13:18;8.68;;;2.53;;
12476;SDS011;6303;51.504;6.300;2022-12-07T07:15:45;6.65;;;2.28;;
12476;SDS011;6303;51.504;6.300;2022-12-07T07:18:12;5.60;;;2.38;;
12476;SDS011;6303;51.504;6.300;2022-12-07T07:20:39;5.82;;;2.33;;
12476;SDS011;6303;51.504;6.300;2022-12-07T07:23:06;6.70;;;2.35;;
12476;SDS011;6303;51.504;6.300;2022-12-07T07:25:35;4.63;;;1.88;;
12476;SDS011;6303;51.504;6.300;2022-12-07T07:28:02;5.00;;;2.20;;
12476;SDS011;6303;51.504;6.300;2022-12-07T07:30:29;5.28;;;2.15;;
12476;SDS011;6303;51.504;6.300;2022-12-07T07:32:57;4.85;;;2.20;;
12476;SDS011;6303;51.504;6.300;2022-12-07T07:35:24;4.72;;;2.10;;
12476;SDS011;6303;51.504;6.300;2022-12-07T07:37:51;4.68;;;2.22;;
12476;SDS011;6303;51.504;6.300;2022-12-07T07:40:18;5.63;;;2.10;;
12476;SDS011;6303;51.504;6.300;2022-12-07T07:42:48;4.22;;;1.90;;
12476;SDS011;6303;51.504;6.300;2022-12-07T07:45:15;5.22;;;2.08;;
12476;SDS011;6303;51.504;6.300;2022-12-07T07:47:42;6.32;;;2.30;;
12476;SDS011;6303;51.504;6.300;2022-12-07T07:50:10;6.80;;;2.55;;
12476;SDS011;6303;51.504;6.300;2022-12-07T07:52:37;5.93;;;2.15;;
12476;SDS011;6303;51.504;6.300;2022-12-07T07:55:04;5.50;;;2.15;;
12476;SDS011;6303;51.504;6.300;2022-12-07T07:57:33;2.10;;;1.70;;
12476;SDS011;6303;51.504;6.300;2022-12-07T08:00:03;5.63;;;1.95;;
12476;SDS011;6303;51.504;6.300;2022-12-07T08:02:37;6.03;;;2.10;;
12476;SDS011;6303;51.504;6.300;2022-12-07T08:05:05;5.15;;;1.83;;
12476;SDS011;6303;51.504;6.300;2022-12-07T08:07:32;4.78;;;2.10;;
12476;SDS011;6303;51.504;6.300;2022-12-07T08:09:59;4.35;;;1.70;;
12476;SDS011;6303;51.504;6.300;2022-12-07T08:12:26;3.83;;;2.00;;
12476;SDS011;6303;51.504;6.300;2022-12-07T08:14:53;4.88;;;1.90;;
12476;SDS011;6303;51.504;6.300;2022-12-07T08:17:22;4.38;;;1.83;;
12476;SDS011;6303;51.504;6.300;2022-12-07T08:19:49;4.53;;;2.08;;
12476;SDS011;6303;51.504;6.300;2022-12-07T08:22:16;2.33;;;1.60;;
12476;SDS011;6303;51.504;6.300;2022-12-07T08:24:44;5.10;;;1.75;;
12476;SDS011;6303;51.504;6.300;2022-12-07T08:27:11;3.00;;;1.65;;
12476;SDS011;6303;51.504;6.300;2022-12-07T08:29:38;3.70;;;1.98;;
12476;SDS011;6303;51.504;6.300;2022-12-07T08:32:05;3.45;;;1.80;;
12476;SDS011;6303;51.504;6.300;2022-12-07T08:34:34;3.45;;;1.70;;
12476;SDS011;6303;51.504;6.300;2022-12-07T08:37:01;4.30;;;1.65;;
12476;SDS011;6303;51.504;6.300;2022-12-07T08:39:28;4.15;;;1.80;;
12476;SDS011;6303;51.504;6.300;2022-12-07T08:41:55;3.15;;;1.50;;
12476;SDS011;6303;51.504;6.300;2022-12-07T08:44:22;4.00;;;1.60;;
12476;SDS011;6303;51.504;6.300;2022-12-07T08:46:49;3.28;;;1.80;;
12476;SDS011;6303;51.504;6.300;2022-12-07T08:49:21;6.25;;;1.70;;
12476;SDS011;6303;51.504;6.300;2022-12-07T08:51:51;2.83;;;1.60;;
12476;SDS011;6303;51.504;6.300;2022-12-07T08:54:19;1.75;;;1.33;;
12476;SDS011;6303;51.504;6.300;2022-12-07T08:56:46;3.10;;;1.60;;
12476;SDS011;6303;51.504;6.300;2022-12-07T08:59:14;2.47;;;1.63;;
12476;SDS011;6303;51.504;6.300;2022-12-07T09:01:43;2.95;;;1.55;;
12476;SDS011;6303;51.504;6.300;2022-12-07T09:04:10;3.50;;;1.55;;
12476;SDS011;6303;51.504;6.300;2022-12-07T09:06:37;2.25;;;1.50;;
12476;SDS011;6303;51.504;6.300;2022-12-07T09:09:06;2.45;;;1.40;;
12476;SDS011;6303;51.504;6.300;2022-12-07T09:11:35;2.35;;;1.38;;
12476;SDS011;6303;51.504;6.300;2022-12-07T09:14:02;2.53;;;1.35;;
12476;SDS011;6303;51.504;6.300;2022-12-07T09:16:29;2.50;;;1.35;;
12476;SDS011;6303;51.504;6.300;2022-12-07T09:18:56;3.92;;;1.45;;
12476;SDS011;6303;51.504;6.300;2022-12-07T09:21:23;2.35;;;1.45;;
12476;SDS011;6303;51.504;6.300;2022-12-07T09:23:50;2.30;;;1.50;;
12476;SDS011;6303;51.504;6.300;2022-12-07T09:26:19;2.95;;;1.50;;
12476;SDS011;6303;51.504;6.300;2022-12-07T09:28:46;2.30;;;1.60;;
12476;SDS011;6303;51.504;6.300;2022-12-07T09:31:13;2.80;;;1.35;;
12476;SDS011;6303;51.504;6.300;2022-12-07T09:33:40;2.05;;;1.38;;
12476;SDS011;6303;51.504;6.300;2022-12-07T09:36:07;2.20;;;1.30;;
12476;SDS011;6303;51.504;6.300;2022-12-07T09:38:35;1.48;;;1.30;;
12476;SDS011;6303;51.504;6.300;2022-12-07T09:41:04;2.08;;;1.60;;
12476;SDS011;6303;51.504;6.300;2022-12-07T09:43:33;2.33;;;1.45;;
12476;SDS011;6303;51.504;6.300;2022-12-07T09:46:03;2.00;;;1.45;;
12476;SDS011;6303;51.504;6.300;2022-12-07T09:48:31;3.13;;;1.40;;
12476;SDS011;6303;51.504;6.300;2022-12-07T09:51:02;1.90;;;1.27;;
12476;SDS011;6303;51.504;6.300;2022-12-07T09:53:37;1.48;;;1.30;;
12476;SDS011;6303;51.504;6.300;2022-12-07T09:56:05;2.47;;;1.45;;
12476;SDS011;6303;51.504;6.300;2022-12-07T09:58:33;2.13;;;1.52;;
12476;SDS011;6303;51.504;6.300;2022-12-07T10:01:05;1.80;;;1.20;;
12476;SDS011;6303;51.504;6.300;2022-12-07T10:03:39;1.58;;;1.45;;
12476;SDS011;6303;51.504;6.300;2022-12-07T10:06:10;2.63;;;1.33;;
12476;SDS011;6303;51.504;6.300;2022-12-07T10:08:38;2.45;;;1.38;;
12476;SDS011;6303;51.504;6.300;2022-12-07T10:11:06;2.60;;;1.42;;
12476;SDS011;6303;51.504;6.300;2022-12-07T10:13:37;3.58;;;1.70;;
12476;SDS011;6303;51.504;6.300;2022-12-07T10:16:06;1.50;;;1.30;;
12476;SDS011;6303;51.504;6.300;2022-12-07T10:18:53;3.22;;;1.30;;
12476;SDS011;6303;51.504;6.300;2022-12-07T10:21:21;2.53;;;1.25;;
12476;SDS011;6303;51.504;6.300;2022-12-07T10:23:59;3.05;;;1.27;;
12476;SDS011;6303;51.504;6.300;2022-12-07T10:26:29;1.95;;;1.42;;
12476;SDS011;6303;51.504;6.300;2022-12-07T10:29:00;1.65;;;1.30;;
12476;SDS011;6303;51.504;6.300;2022-12-07T10:31:39;1.70;;;1.30;;
12476;SDS011;6303;51.504;6.300;2022-12-07T10:34:14;2.47;;;1.50;;
12476;SDS011;6303;51.504;6.300;2022-12-07T10:36:49;2.17;;;1.30;;
12476;SDS011;6303;51.504;6.300;2022-12-07T10:39:17;1.48;;;1.38;;
12476;SDS011;6303;51.504;6.300;2022-12-07T10:41:52;1.67;;;1.30;;
12476;SDS011;6303;51.504;6.300;2022-12-07T10:44:23;2.45;;;1.50;;
12476;SDS011;6303;51.504;6.300;2022-12-07T10:47:02;2.50;;;1.20;;
12476;SDS011;6303;51.504;6.300;2022-12-07T10:49:42;2.25;;;1.33;;
12476;SDS011;6303;51.504;6.300;2022-12-07T10:52:41;2.40;;;1.20;;
12476;SDS011;6303;51.504;6.300;2022-12-07T10:55:16;2.17;;;1.30;;
12476;SDS011;6303;51.504;6.300;2022-12-07T10:57:58;1.85;;;1.15;;
12476;SDS011;6303;51.504;6.300;2022-12-07T11:00:42;2.13;;;1.45;;
12476;SDS011;6303;51.504;6.300;2022-12-07T11:03:19;1.58;;;1.25;;
12476;SDS011;6303;51.504;6.300;2022-12-07T11:05:58;1.30;;;1.20;;
12476;SDS011;6303;51.504;6.300;2022-12-07T11:08:44;2.38;;;1.20;;
12476;SDS011;6303;51.504;6.300;2022-12-07T11:11:19;1.35;;;1.02;;
12476;SDS011;6303;51.504;6.300;2022-12-07T11:13:55;1.58;;;1.33;;
12476;SDS011;6303;51.504;6.300;2022-12-07T11:16:32;2.72;;;1.40;;
12476;SDS011;6303;51.504;6.300;2022-12-07T11:19:24;4.20;;;1.00;;
12476;SDS011;6303;51.504;6.300;2022-12-07T11:22:06;3.17;;;1.30;;
12476;SDS011;6303;51.504;6.300;2022-12-07T11:24:40;1.90;;;1.20;;
12476;SDS011;6303;51.504;6.300;2022-12-07T11:27:17;2.35;;;1.30;;
12476;SDS011;6303;51.504;6.300;2022-12-07T11:29:58;3.45;;;1.10;;
12476;SDS011;6303;51.504;6.300;2022-12-07T11:32:47;6.53;;;1.63;;
12476;SDS011;6303;51.504;6.300;2022-12-07T11:35:22;5.03;;;1.40;;
12476;SDS011;6303;51.504;6.300;2022-12-07T11:38:00;6.28;;;1.90;;
12476;SDS011;6303;51.504;6.300;2022-12-07T11:40:35;7.35;;;1.75;;
12476;SDS011;6303;51.504;6.300;2022-12-07T11:43:05;7.63;;;2.20;;
12476;SDS011;6303;51.504;6.300;2022-12-07T11:45:41;8.10;;;2.53;;
12476;SDS011;6303;51.504;6.300;2022-12-07T11:48:12;5.00;;;1.80;;
12476;SDS011;6303;51.504;6.300;2022-12-07T11:50:44;3.22;;;1.60;;
12476;SDS011;6303;51.504;6.300;2022-12-07T11:53:14;3.45;;;1.75;;
12476;SDS011;6303;51.504;6.300;2022-12-07T11:55:46;3.13;;;1.80;;
12476;SDS011;6303;51.504;6.300;2022-12-07T11:58:23;3.25;;;1.60;;
12476;SDS011;6303;51.504;6.300;2022-12-07T12:01:11;4.45;;;1.75;;
12476;SDS011;6303;51.504;6.300;2022-12-07T12:03:47;4.00;;;1.38;;
12476;SDS011;6303;51.504;6.300;2022-12-07T12:06:17;4.13;;;1.77;;
12476;SDS011;6303;51.504;6.300;2022-12-07T12:08:46;4.38;;;1.90;;
12476;SDS011;6303;51.504;6.300;2022-12-07T12:11:21;2.75;;;1.63;;
12476;SDS011;6303;51.504;6.300;2022-12-07T12:14:05;2.85;;;1.50;;
12476;SDS011;6303;51.504;6.300;2022-12-07T12:16:48;2.70;;;1.73;;
12476;SDS011;6303;51.504;6.300;2022-12-07T12:19:34;3.28;;;1.80;;
12476;SDS011;6303;51.504;6.300;2022-12-07T12:22:06;2.17;;;1.38;;
12476;SDS011;6303;51.504;6.300;2022-12-07T12:24:38;3.03;;;1.60;;
12476;SDS011;6303;51.504;6.300;2022-12-07T12:27:07;4.07;;;1.67;;
12476;SDS011;6303;51.504;6.300;2022-12-07T12:29:41;2.25;;;1.60;;
12476;SDS011;6303;51.504;6.300;2022-12-07T12:32:17;2.47;;;1.50;;
12476;SDS011;6303;51.504;6.300;2022-12-07T12:35:02;2.88;;;1.50;;
12476;SDS011;6303;51.504;6.300;2022-12-07T12:37:45;2.35;;;1.40;;
12476;SDS011;6303;51.504;6.300;2022-12-07T12:43:21;2.85;;;1.55;;
12476;SDS011;6303;51.504;6.300;2022-12-07T12:46:36;2.22;;;1.40;;
12476;SDS011;6303;51.504;6.300;2022-12-07T12:52:45;2.13;;;1.50;;
12476;SDS011;6303;51.504;6.300;2022-12-07T12:55:14;2.42;;;1.40;;
12476;SDS011;6303;51.504;6.300;2022-12-07T12:57:46;2.53;;;1.20;;
12476;SDS011;6303;51.504;6.300;2022-12-07T13:00:17;2.45;;;1.40;;
12476;SDS011;6303;51.504;6.300;2022-12-07T13:02:49;1.63;;;1.27;;
12476;SDS011;6303;51.504;6.300;2022-12-07T13:05:18;2.05;;;1.42;;
12476;SDS011;6303;51.504;6.300;2022-12-07T13:07:55;2.30;;;1.48;;
12476;SDS011;6303;51.504;6.300;2022-12-07T13:22:27;1.95;;;1.38;;
12476;SDS011;6303;51.504;6.300;2022-12-07T13:25:07;1.70;;;1.30;;
12476;SDS011;6303;51.504;6.300;2022-12-07T13:27:37;1.30;;;1.20;;
12476;SDS011;6303;51.504;6.300;2022-12-07T13:30:09;1.80;;;1.30;;
12476;SDS011;6303;51.504;6.300;2022-12-07T13:32:41;1.63;;;1.20;;
12476;SDS011;6303;51.504;6.300;2022-12-07T13:35:29;1.95;;;1.38;;
12476;SDS011;6303;51.504;6.300;2022-12-07T13:37:58;1.67;;;1.10;;
12476;SDS011;6303;51.504;6.300;2022-12-07T13:40:28;1.98;;;1.30;;
12476;SDS011;6303;51.504;6.300;2022-12-07T13:42:59;1.90;;;1.30;;
12476;SDS011;6303;51.504;6.300;2022-12-07T13:45:28;1.35;;;1.10;;
12476;SDS011;6303;51.504;6.300;2022-12-07T13:48:19;1.75;;;1.20;;
12476;SDS011;6303;51.504;6.300;2022-12-07T13:50:55;1.02;;;1.02;;
12476;SDS011;6303;51.504;6.300;2022-12-07T13:53:23;1.38;;;1.10;;
12476;SDS011;6303;51.504;6.300;2022-12-07T13:55:54;3.22;;;1.38;;
12476;SDS011;6303;51.504;6.300;2022-12-07T13:58:22;2.35;;;1.20;;
12476;SDS011;6303;51.504;6.300;2022-12-07T14:00:49;1.30;;;1.20;;
12476;SDS011;6303;51.504;6.300;2022-12-07T14:03:23;1.00;;;1.00;;
12476;SDS011;6303;51.504;6.300;2022-12-07T14:06:05;1.52;;;1.00;;
12476;SDS011;6303;51.504;6.300;2022-12-07T14:08:38;1.40;;;1.00;;
12476;SDS011;6303;51.504;6.300;2022-12-07T14:11:06;1.58;;;1.17;;
12476;SDS011;6303;51.504;6.300;2022-12-07T14:13:39;1.75;;;1.10;;
12476;SDS011;6303;51.504;6.300;2022-12-07T14:16:17;1.38;;;1.00;;
12476;SDS011;6303;51.504;6.300;2022-12-07T14:18:49;1.85;;;1.38;;
12476;SDS011;6303;51.504;6.300;2022-12-07T14:21:18;1.77;;;1.05;;
12476;SDS011;6303;51.504;6.300;2022-12-07T14:24:01;2.13;;;1.20;;
12476;SDS011;6303;51.504;6.300;2022-12-07T14:26:36;1.30;;;1.13;;
12476;SDS011;6303;51.504;6.300;2022-12-07T14:31:48;2.13;;;1.30;;
12476;SDS011;6303;51.504;6.300;2022-12-07T14:34:15;1.10;;;0.95;;
12476;SDS011;6303;51.504;6.300;2022-12-07T14:36:42;1.42;;;1.05;;
12476;SDS011;6303;51.504;6.300;2022-12-07T14:39:09;2.13;;;1.20;;
12476;SDS011;6303;51.504;6.300;2022-12-07T14:41:37;1.40;;;1.00;;
12476;SDS011;6303;51.504;6.300;2022-12-07T14:44:17;1.67;;;1.10;;
12476;SDS011;6303;51.504;6.300;2022-12-07T14:46:45;1.35;;;0.98;;
12476;SDS011;6303;51.504;6.300;2022-12-07T14:49:13;1.70;;;1.05;;
12476;SDS011;6303;51.504;6.300;2022-12-07T14:51:40;1.75;;;1.00;;
12476;SDS011;6303;51.504;6.300;2022-12-07T14:54:12;2.15;;;1.00;;
12476;SDS011;6303;51.504;6.300;2022-12-07T14:56:44;1.98;;;0.90;;
12476;SDS011;6303;51.504;6.300;2022-12-07T14:59:14;1.00;;;0.90;;
12476;SDS011;6303;51.504;6.300;2022-12-07T15:01:41;1.50;;;1.13;;
12476;SDS011;6303;51.504;6.300;2022-12-07T15:04:09;0.80;;;0.80;;
12476;SDS011;6303;51.504;6.300;2022-12-07T15:06:36;1.90;;;1.00;;
12476;SDS011;6303;51.504;6.300;2022-12-07T15:09:04;1.10;;;1.00;;
12476;SDS011;6303;51.504;6.300;2022-12-07T15:11:31;1.23;;;0.95;;
12476;SDS011;6303;51.504;6.300;2022-12-07T15:13:59;1.58;;;1.10;;
12476;SDS011;6303;51.504;6.300;2022-12-07T15:16:37;1.23;;;0.90;;
12476;SDS011;6303;51.504;6.300;2022-12-07T15:19:06;1.13;;;1.00;;
12476;SDS011;6303;51.504;6.300;2022-12-07T15:21:36;2.33;;;1.27;;
12476;SDS011;6303;51.504;6.300;2022-12-07T15:24:04;1.48;;;0.90;;
12476;SDS011;6303;51.504;6.300;2022-12-07T15:26:31;1.80;;;0.93;;
12476;SDS011;6303;51.504;6.300;2022-12-07T15:29:00;1.25;;;1.00;;
12476;SDS011;6303;51.504;6.300;2022-12-07T15:31:27;1.38;;;1.05;;
12476;SDS011;6303;51.504;6.300;2022-12-07T15:33:54;1.17;;;1.02;;
12476;SDS011;6303;51.504;6.300;2022-12-07T15:36:22;1.70;;;0.90;;
12476;SDS011;6303;51.504;6.300;2022-12-07T15:38:51;1.00;;;0.80;;
12476;SDS011;6303;51.504;6.300;2022-12-07T15:41:18;0.90;;;0.80;;
12476;SDS011;6303;51.504;6.300;2022-12-07T15:43:46;1.42;;;0.88;;
12476;SDS011;6303;51.504;6.300;2022-12-07T15:46:32;0.82;;;0.82;;